sensor_id;sensor_type;location;lat;lon;timestamp;P1;durP1;ratioP1;P2;durP2;ratioP2
19883;SDS011;10104;50.732;10.174;2023-05-10T00:01:38;3.63;;;2.53;;
19883;SDS011;10104;50.732;10.174;2023-05-10T00:03:59;3.15;;;2.60;;
19883;SDS011;10104;50.732;10.174;2023-05-10T00:06:21;3.78;;;2.60;;
19883;SDS011;10104;50.732;10.174;2023-05-10T00:08:42;4.75;;;2.83;;
19883;SDS011;10104;50.732;10.174;2023-05-10T00:11:04;3.42;;;2.88;;
19883;SDS011;10104;50.732;10.174;2023-05-10T00:13:26;3.70;;;2.50;;
19883;SDS011;10104;50.732;10.174;2023-05-10T00:15:47;4.65;;;2.97;;
19883;SDS011;10104;50.732;10.174;2023-05-10T00:18:09;3.60;;;2.90;;
19883;SDS011;10104;50.732;10.174;2023-05-10T00:20:30;3.72;;;3.22;;
19883;SDS011;10104;50.732;10.174;2023-05-10T00:22:52;3.75;;;3.35;;
19883;SDS011;10104;50.732;10.174;2023-05-10T00:25:13;4.63;;;3.40;;
19883;SDS011;10104;50.732;10.174;2023-05-10T00:27:35;4.85;;;3.60;;
19883;SDS011;10104;50.732;10.174;2023-05-10T00:29:57;3.70;;;3.40;;
19883;SDS011;10104;50.732;10.174;2023-05-10T00:32:18;4.63;;;3.50;;
19883;SDS011;10104;50.732;10.174;2023-05-10T00:34:40;5.00;;;3.58;;
19883;SDS011;10104;50.732;10.174;2023-05-10T00:37:01;4.20;;;3.80;;
19883;SDS011;10104;50.732;10.174;2023-05-10T00:39:23;6.43;;;3.97;;
19883;SDS011;10104;50.732;10.174;2023-05-10T00:41:45;4.82;;;3.63;;
19883;SDS011;10104;50.732;10.174;2023-05-10T00:44:06;5.57;;;4.07;;
19883;SDS011;10104;50.732;10.174;2023-05-10T00:46:28;9.43;;;4.50;;
19883;SDS011;10104;50.732;10.174;2023-05-10T00:48:50;5.00;;;4.50;;
19883;SDS011;10104;50.732;10.174;2023-05-10T00:51:13;6.10;;;4.15;;
19883;SDS011;10104;50.732;10.174;2023-05-10T00:53:34;5.82;;;4.20;;
19883;SDS011;10104;50.732;10.174;2023-05-10T00:55:56;5.28;;;4.78;;
19883;SDS011;10104;50.732;10.174;2023-05-10T00:58:18;5.90;;;4.97;;
19883;SDS011;10104;50.732;10.174;2023-05-10T01:00:41;5.35;;;4.80;;
19883;SDS011;10104;50.732;10.174;2023-05-10T01:03:04;6.07;;;5.47;;
19883;SDS011;10104;50.732;10.174;2023-05-10T01:05:26;5.68;;;5.18;;
19883;SDS011;10104;50.732;10.174;2023-05-10T01:07:48;7.65;;;5.45;;
19883;SDS011;10104;50.732;10.174;2023-05-10T01:10:10;8.23;;;5.53;;
19883;SDS011;10104;50.732;10.174;2023-05-10T01:12:32;6.03;;;4.88;;
19883;SDS011;10104;50.732;10.174;2023-05-10T01:14:57;6.15;;;5.15;;
19883;SDS011;10104;50.732;10.174;2023-05-10T01:17:19;9.00;;;5.13;;
19883;SDS011;10104;50.732;10.174;2023-05-10T01:19:41;7.57;;;5.30;;
19883;SDS011;10104;50.732;10.174;2023-05-10T01:30:29;5.38;;;4.88;;
19883;SDS011;10104;50.732;10.174;2023-05-10T01:38:38;6.30;;;4.40;;
19883;SDS011;10104;50.732;10.174;2023-05-10T01:41:08;4.97;;;4.47;;
19883;SDS011;10104;50.732;10.174;2023-05-10T01:43:42;5.43;;;4.78;;
19883;SDS011;10104;50.732;10.174;2023-05-10T01:46:14;7.10;;;4.70;;
19883;SDS011;10104;50.732;10.174;2023-05-10T01:48:40;5.67;;;4.93;;
19883;SDS011;10104;50.732;10.174;2023-05-10T01:51:08;5.35;;;4.78;;
19883;SDS011;10104;50.732;10.174;2023-05-10T01:53:31;5.23;;;4.57;;
19883;SDS011;10104;50.732;10.174;2023-05-10T01:55:56;7.97;;;4.87;;
19883;SDS011;10104;50.732;10.174;2023-05-10T01:58:21;6.60;;;5.23;;
19883;SDS011;10104;50.732;10.174;2023-05-10T02:00:46;6.10;;;5.50;;
19883;SDS011;10104;50.732;10.174;2023-05-10T02:03:10;6.13;;;5.43;;
19883;SDS011;10104;50.732;10.174;2023-05-10T02:05:33;5.77;;;5.17;;
19883;SDS011;10104;50.732;10.174;2023-05-10T02:07:57;5.90;;;5.20;;
19883;SDS011;10104;50.732;10.174;2023-05-10T02:10:20;6.53;;;5.93;;
19883;SDS011;10104;50.732;10.174;2023-05-10T02:12:42;7.00;;;6.30;;
19883;SDS011;10104;50.732;10.174;2023-05-10T02:15:07;5.70;;;5.20;;
19883;SDS011;10104;50.732;10.174;2023-05-10T02:17:30;6.53;;;5.83;;
19883;SDS011;10104;50.732;10.174;2023-05-10T02:19:53;6.40;;;5.80;;
19883;SDS011;10104;50.732;10.174;2023-05-10T02:22:16;6.70;;;5.93;;
19883;SDS011;10104;50.732;10.174;2023-05-10T02:24:39;6.97;;;6.33;;
19883;SDS011;10104;50.732;10.174;2023-05-10T02:27:02;8.90;;;6.67;;
19883;SDS011;10104;50.732;10.174;2023-05-10T02:29:25;8.07;;;6.70;;
19883;SDS011;10104;50.732;10.174;2023-05-10T02:31:49;8.07;;;6.40;;
19883;SDS011;10104;50.732;10.174;2023-05-10T02:34:12;7.20;;;6.43;;
19883;SDS011;10104;50.732;10.174;2023-05-10T02:36:34;8.73;;;6.53;;
19883;SDS011;10104;50.732;10.174;2023-05-10T02:38:57;7.03;;;6.40;;
19883;SDS011;10104;50.732;10.174;2023-05-10T02:41:22;7.23;;;6.53;;
19883;SDS011;10104;50.732;10.174;2023-05-10T02:43:45;8.17;;;6.70;;
19883;SDS011;10104;50.732;10.174;2023-05-10T02:46:08;7.47;;;6.60;;
19883;SDS011;10104;50.732;10.174;2023-05-10T02:48:29;7.70;;;6.50;;
19883;SDS011;10104;50.732;10.174;2023-05-10T02:50:52;9.20;;;6.60;;
19883;SDS011;10104;50.732;10.174;2023-05-10T02:53:17;10.47;;;6.73;;
19883;SDS011;10104;50.732;10.174;2023-05-10T02:55:43;7.13;;;6.43;;
19883;SDS011;10104;50.732;10.174;2023-05-10T02:58:08;8.37;;;7.27;;
19883;SDS011;10104;50.732;10.174;2023-05-10T03:00:30;7.43;;;6.73;;
19883;SDS011;10104;50.732;10.174;2023-05-10T03:02:52;8.53;;;7.27;;
19883;SDS011;10104;50.732;10.174;2023-05-10T03:05:14;8.30;;;7.17;;
19883;SDS011;10104;50.732;10.174;2023-05-10T03:07:35;7.27;;;6.60;;
19883;SDS011;10104;50.732;10.174;2023-05-10T03:09:57;8.70;;;7.07;;
19883;SDS011;10104;50.732;10.174;2023-05-10T03:12:33;7.90;;;6.60;;
19883;SDS011;10104;50.732;10.174;2023-05-10T03:20:35;9.57;;;6.93;;
19883;SDS011;10104;50.732;10.174;2023-05-10T03:23:04;8.20;;;6.77;;
19883;SDS011;10104;50.732;10.174;2023-05-10T03:25:31;7.50;;;6.80;;
19883;SDS011;10104;50.732;10.174;2023-05-10T03:27:53;6.93;;;6.23;;
19883;SDS011;10104;50.732;10.174;2023-05-10T03:30:16;7.70;;;6.80;;
19883;SDS011;10104;50.732;10.174;2023-05-10T03:32:38;7.30;;;6.40;;
19883;SDS011;10104;50.732;10.174;2023-05-10T03:35:00;5.17;;;4.67;;
19883;SDS011;10104;50.732;10.174;2023-05-10T03:37:23;6.27;;;5.23;;
19883;SDS011;10104;50.732;10.174;2023-05-10T03:39:44;7.53;;;6.10;;
19883;SDS011;10104;50.732;10.174;2023-05-10T03:42:06;7.47;;;5.97;;
19883;SDS011;10104;50.732;10.174;2023-05-10T03:44:27;7.07;;;6.37;;
19883;SDS011;10104;50.732;10.174;2023-05-10T03:46:49;8.47;;;5.90;;
19883;SDS011;10104;50.732;10.174;2023-05-10T03:49:10;5.40;;;4.77;;
19883;SDS011;10104;50.732;10.174;2023-05-10T03:51:32;4.87;;;4.37;;
19883;SDS011;10104;50.732;10.174;2023-05-10T03:53:54;6.97;;;4.53;;
19883;SDS011;10104;50.732;10.174;2023-05-10T03:56:16;6.23;;;4.40;;
19883;SDS011;10104;50.732;10.174;2023-05-10T03:58:38;5.27;;;4.53;;
19883;SDS011;10104;50.732;10.174;2023-05-10T04:00:59;4.70;;;4.27;;
19883;SDS011;10104;50.732;10.174;2023-05-10T04:03:21;9.03;;;5.37;;
19883;SDS011;10104;50.732;10.174;2023-05-10T04:05:42;5.13;;;4.70;;
19883;SDS011;10104;50.732;10.174;2023-05-10T04:08:04;4.90;;;4.03;;
19883;SDS011;10104;50.732;10.174;2023-05-10T04:10:26;4.50;;;4.00;;
19883;SDS011;10104;50.732;10.174;2023-05-10T04:12:47;4.70;;;4.20;;
19883;SDS011;10104;50.732;10.174;2023-05-10T04:15:09;3.37;;;3.03;;
19883;SDS011;10104;50.732;10.174;2023-05-10T04:17:30;4.43;;;3.10;;
19883;SDS011;10104;50.732;10.174;2023-05-10T04:19:52;4.00;;;2.70;;
19883;SDS011;10104;50.732;10.174;2023-05-10T04:22:15;2.80;;;2.60;;
19883;SDS011;10104;50.732;10.174;2023-05-10T04:24:37;1.87;;;1.70;;
19883;SDS011;10104;50.732;10.174;2023-05-10T04:26:58;1.60;;;1.50;;
19883;SDS011;10104;50.732;10.174;2023-05-10T04:29:20;3.80;;;2.30;;
19883;SDS011;10104;50.732;10.174;2023-05-10T04:31:41;2.30;;;1.97;;
19883;SDS011;10104;50.732;10.174;2023-05-10T04:34:03;0.90;;;0.80;;
19883;SDS011;10104;50.732;10.174;2023-05-10T04:36:24;1.77;;;0.70;;
19883;SDS011;10104;50.732;10.174;2023-05-10T04:38:46;0.63;;;0.50;;
19883;SDS011;10104;50.732;10.174;2023-05-10T04:41:08;0.90;;;0.50;;
19883;SDS011;10104;50.732;10.174;2023-05-10T04:43:30;0.60;;;0.40;;
19883;SDS011;10104;50.732;10.174;2023-05-10T04:45:52;1.23;;;0.57;;
19883;SDS011;10104;50.732;10.174;2023-05-10T04:48:13;1.27;;;0.50;;
19883;SDS011;10104;50.732;10.174;2023-05-10T04:50:35;1.30;;;0.60;;
19883;SDS011;10104;50.732;10.174;2023-05-10T04:52:56;0.43;;;0.43;;
19883;SDS011;10104;50.732;10.174;2023-05-10T04:55:18;2.33;;;0.60;;
19883;SDS011;10104;50.732;10.174;2023-05-10T04:57:40;0.60;;;0.60;;
19883;SDS011;10104;50.732;10.174;2023-05-10T05:00:01;0.60;;;0.60;;
19883;SDS011;10104;50.732;10.174;2023-05-10T05:02:23;0.70;;;0.60;;
19883;SDS011;10104;50.732;10.174;2023-05-10T05:04:45;0.50;;;0.40;;
19883;SDS011;10104;50.732;10.174;2023-05-10T05:07:06;0.83;;;0.67;;
19883;SDS011;10104;50.732;10.174;2023-05-10T05:09:28;1.37;;;0.90;;
19883;SDS011;10104;50.732;10.174;2023-05-10T05:11:49;1.10;;;1.00;;
19883;SDS011;10104;50.732;10.174;2023-05-10T05:14:10;1.23;;;0.60;;
19883;SDS011;10104;50.732;10.174;2023-05-10T05:16:32;0.90;;;0.70;;
19883;SDS011;10104;50.732;10.174;2023-05-10T05:18:53;0.83;;;0.53;;
19883;SDS011;10104;50.732;10.174;2023-05-10T05:21:15;0.77;;;0.50;;
19883;SDS011;10104;50.732;10.174;2023-05-10T05:23:38;0.40;;;0.40;;
19883;SDS011;10104;50.732;10.174;2023-05-10T05:25:59;1.20;;;0.40;;
19883;SDS011;10104;50.732;10.174;2023-05-10T05:28:21;0.50;;;0.50;;
19883;SDS011;10104;50.732;10.174;2023-05-10T05:30:42;0.37;;;0.37;;
19883;SDS011;10104;50.732;10.174;2023-05-10T05:33:04;0.20;;;0.20;;
19883;SDS011;10104;50.732;10.174;2023-05-10T05:35:25;0.37;;;0.37;;
19883;SDS011;10104;50.732;10.174;2023-05-10T05:37:47;2.83;;;0.40;;
19883;SDS011;10104;50.732;10.174;2023-05-10T05:40:11;0.40;;;0.40;;
19883;SDS011;10104;50.732;10.174;2023-05-10T05:42:33;0.60;;;0.50;;
19883;SDS011;10104;50.732;10.174;2023-05-10T05:44:55;0.80;;;0.43;;
19883;SDS011;10104;50.732;10.174;2023-05-10T05:47:16;1.20;;;0.30;;
19883;SDS011;10104;50.732;10.174;2023-05-10T05:49:38;0.33;;;0.33;;
19883;SDS011;10104;50.732;10.174;2023-05-10T05:52:03;0.30;;;0.30;;
19883;SDS011;10104;50.732;10.174;2023-05-10T05:54:25;0.30;;;0.30;;
19883;SDS011;10104;50.732;10.174;2023-05-10T05:56:47;0.30;;;0.30;;
19883;SDS011;10104;50.732;10.174;2023-05-10T05:59:08;0.20;;;0.20;;
19883;SDS011;10104;50.732;10.174;2023-05-10T06:01:30;0.40;;;0.40;;
19883;SDS011;10104;50.732;10.174;2023-05-10T06:03:51;0.70;;;0.40;;
19883;SDS011;10104;50.732;10.174;2023-05-10T06:06:13;0.38;;;0.38;;
19883;SDS011;10104;50.732;10.174;2023-05-10T06:08:35;0.40;;;0.40;;
19883;SDS011;10104;50.732;10.174;2023-05-10T06:10:56;0.73;;;0.30;;
19883;SDS011;10104;50.732;10.174;2023-05-10T06:13:18;0.38;;;0.22;;
19883;SDS011;10104;50.732;10.174;2023-05-10T06:15:39;1.70;;;0.38;;
19883;SDS011;10104;50.732;10.174;2023-05-10T06:18:01;0.20;;;0.20;;
19883;SDS011;10104;50.732;10.174;2023-05-10T06:20:23;1.10;;;0.40;;
19883;SDS011;10104;50.732;10.174;2023-05-10T06:22:44;0.55;;;0.50;;
19883;SDS011;10104;50.732;10.174;2023-05-10T06:25:06;0.43;;;0.40;;
19883;SDS011;10104;50.732;10.174;2023-05-10T06:27:28;0.65;;;0.60;;
19883;SDS011;10104;50.732;10.174;2023-05-10T06:29:49;1.77;;;0.40;;
19883;SDS011;10104;50.732;10.174;2023-05-10T06:32:19;0.95;;;0.40;;
19883;SDS011;10104;50.732;10.174;2023-05-10T06:34:40;1.48;;;0.40;;
19883;SDS011;10104;50.732;10.174;2023-05-10T06:37:04;0.73;;;0.30;;
19883;SDS011;10104;50.732;10.174;2023-05-10T06:39:25;1.27;;;0.40;;
19883;SDS011;10104;50.732;10.174;2023-05-10T06:41:47;0.80;;;0.60;;
19883;SDS011;10104;50.732;10.174;2023-05-10T06:44:08;1.42;;;0.50;;
19883;SDS011;10104;50.732;10.174;2023-05-10T06:46:30;0.40;;;0.40;;
19883;SDS011;10104;50.732;10.174;2023-05-10T06:48:52;0.93;;;0.47;;
19883;SDS011;10104;50.732;10.174;2023-05-10T06:51:13;0.70;;;0.50;;
19883;SDS011;10104;50.732;10.174;2023-05-10T06:53:35;0.52;;;0.52;;
19883;SDS011;10104;50.732;10.174;2023-05-10T06:55:56;0.43;;;0.43;;
19883;SDS011;10104;50.732;10.174;2023-05-10T06:58:17;0.40;;;0.40;;
19883;SDS011;10104;50.732;10.174;2023-05-10T07:00:39;0.50;;;0.50;;
19883;SDS011;10104;50.732;10.174;2023-05-10T07:03:03;1.35;;;0.50;;
19883;SDS011;10104;50.732;10.174;2023-05-10T07:05:25;0.85;;;0.70;;
19883;SDS011;10104;50.732;10.174;2023-05-10T07:07:49;0.45;;;0.45;;
19883;SDS011;10104;50.732;10.174;2023-05-10T07:10:10;0.82;;;0.80;;
19883;SDS011;10104;50.732;10.174;2023-05-10T07:12:32;2.38;;;0.80;;
19883;SDS011;10104;50.732;10.174;2023-05-10T07:14:54;0.80;;;0.80;;
19883;SDS011;10104;50.732;10.174;2023-05-10T07:17:15;1.33;;;0.70;;
19883;SDS011;10104;50.732;10.174;2023-05-10T07:19:37;0.70;;;0.70;;
19883;SDS011;10104;50.732;10.174;2023-05-10T07:21:58;1.55;;;0.70;;
19883;SDS011;10104;50.732;10.174;2023-05-10T07:24:20;1.52;;;1.00;;
19883;SDS011;10104;50.732;10.174;2023-05-10T07:26:41;0.85;;;0.70;;
19883;SDS011;10104;50.732;10.174;2023-05-10T07:29:03;0.70;;;0.70;;
19883;SDS011;10104;50.732;10.174;2023-05-10T07:31:24;1.33;;;0.82;;
19883;SDS011;10104;50.732;10.174;2023-05-10T07:33:46;1.05;;;0.77;;
19883;SDS011;10104;50.732;10.174;2023-05-10T07:36:07;0.88;;;0.70;;
19883;SDS011;10104;50.732;10.174;2023-05-10T07:38:29;0.80;;;0.80;;
19883;SDS011;10104;50.732;10.174;2023-05-10T07:40:50;4.63;;;0.70;;
19883;SDS011;10104;50.732;10.174;2023-05-10T07:43:12;0.77;;;0.77;;
19883;SDS011;10104;50.732;10.174;2023-05-10T07:45:33;1.70;;;0.85;;
19883;SDS011;10104;50.732;10.174;2023-05-10T07:47:55;0.80;;;0.80;;
19883;SDS011;10104;50.732;10.174;2023-05-10T07:50:17;1.27;;;0.80;;
19883;SDS011;10104;50.732;10.174;2023-05-10T07:52:38;0.80;;;0.70;;
19883;SDS011;10104;50.732;10.174;2023-05-10T07:55:00;1.20;;;0.70;;
19883;SDS011;10104;50.732;10.174;2023-05-10T07:57:21;1.15;;;0.80;;
19883;SDS011;10104;50.732;10.174;2023-05-10T07:59:43;3.45;;;0.90;;
19883;SDS011;10104;50.732;10.174;2023-05-10T08:02:05;1.42;;;0.70;;
19883;SDS011;10104;50.732;10.174;2023-05-10T08:04:27;0.60;;;0.60;;
19883;SDS011;10104;50.732;10.174;2023-05-10T08:06:49;1.55;;;0.82;;
19883;SDS011;10104;50.732;10.174;2023-05-10T08:09:10;0.88;;;0.80;;
19883;SDS011;10104;50.732;10.174;2023-05-10T08:11:32;0.95;;;0.85;;
19883;SDS011;10104;50.732;10.174;2023-05-10T08:13:55;1.10;;;1.00;;
19883;SDS011;10104;50.732;10.174;2023-05-10T08:16:17;2.78;;;1.00;;
19883;SDS011;10104;50.732;10.174;2023-05-10T08:18:39;0.73;;;0.73;;
19883;SDS011;10104;50.732;10.174;2023-05-10T08:21:01;0.68;;;0.68;;
19883;SDS011;10104;50.732;10.174;2023-05-10T08:23:22;1.00;;;0.90;;
19883;SDS011;10104;50.732;10.174;2023-05-10T08:25:44;1.83;;;1.00;;
19883;SDS011;10104;50.732;10.174;2023-05-10T08:28:05;4.07;;;1.15;;
19883;SDS011;10104;50.732;10.174;2023-05-10T08:30:28;1.25;;;1.00;;
19883;SDS011;10104;50.732;10.174;2023-05-10T08:32:50;1.10;;;1.00;;
19883;SDS011;10104;50.732;10.174;2023-05-10T08:35:11;2.38;;;1.00;;
19883;SDS011;10104;50.732;10.174;2023-05-10T08:37:33;1.55;;;1.10;;
19883;SDS011;10104;50.732;10.174;2023-05-10T08:39:54;1.20;;;1.08;;
19883;SDS011;10104;50.732;10.174;2023-05-10T08:42:16;2.03;;;1.10;;
19883;SDS011;10104;50.732;10.174;2023-05-10T08:44:44;1.63;;;1.23;;
19883;SDS011;10104;50.732;10.174;2023-05-10T08:47:09;1.80;;;1.30;;
19883;SDS011;10104;50.732;10.174;2023-05-10T08:49:32;2.53;;;1.45;;
19883;SDS011;10104;50.732;10.174;2023-05-10T08:51:55;1.85;;;1.25;;
19883;SDS011;10104;50.732;10.174;2023-05-10T08:54:18;3.45;;;1.50;;
19883;SDS011;10104;50.732;10.174;2023-05-10T08:56:40;2.22;;;1.38;;
19883;SDS011;10104;50.732;10.174;2023-05-10T08:59:02;1.30;;;1.20;;
19883;SDS011;10104;50.732;10.174;2023-05-10T09:01:24;2.65;;;1.30;;
19883;SDS011;10104;50.732;10.174;2023-05-10T09:03:47;1.65;;;1.50;;
19883;SDS011;10104;50.732;10.174;2023-05-10T09:06:10;1.50;;;1.40;;
19883;SDS011;10104;50.732;10.174;2023-05-10T09:08:34;2.78;;;1.15;;
19883;SDS011;10104;50.732;10.174;2023-05-10T09:10:57;1.45;;;1.35;;
19883;SDS011;10104;50.732;10.174;2023-05-10T09:13:19;1.58;;;1.48;;
19883;SDS011;10104;50.732;10.174;2023-05-10T09:15:43;1.30;;;1.20;;
19883;SDS011;10104;50.732;10.174;2023-05-10T09:18:05;3.38;;;1.33;;
19883;SDS011;10104;50.732;10.174;2023-05-10T09:20:27;1.30;;;1.20;;
19883;SDS011;10104;50.732;10.174;2023-05-10T09:22:49;1.65;;;1.10;;
19883;SDS011;10104;50.732;10.174;2023-05-10T09:25:14;1.85;;;1.15;;
19883;SDS011;10104;50.732;10.174;2023-05-10T09:27:38;1.10;;;1.00;;
19883;SDS011;10104;50.732;10.174;2023-05-10T09:30:01;2.38;;;1.25;;
19883;SDS011;10104;50.732;10.174;2023-05-10T09:32:35;2.90;;;1.35;;
19883;SDS011;10104;50.732;10.174;2023-05-10T09:35:05;1.30;;;1.20;;
19883;SDS011;10104;50.732;10.174;2023-05-10T09:37:31;1.45;;;1.15;;
19883;SDS011;10104;50.732;10.174;2023-05-10T09:39:53;2.55;;;1.20;;
19883;SDS011;10104;50.732;10.174;2023-05-10T09:42:17;1.17;;;1.10;;
19883;SDS011;10104;50.732;10.174;2023-05-10T09:44:39;1.38;;;1.27;;
19883;SDS011;10104;50.732;10.174;2023-05-10T09:47:02;1.15;;;1.05;;
19883;SDS011;10104;50.732;10.174;2023-05-10T09:49:24;1.83;;;1.48;;
19883;SDS011;10104;50.732;10.174;2023-05-10T09:51:45;1.40;;;1.30;;
19883;SDS011;10104;50.732;10.174;2023-05-10T09:54:11;1.33;;;1.20;;
19883;SDS011;10104;50.732;10.174;2023-05-10T09:56:35;1.60;;;1.40;;
19883;SDS011;10104;50.732;10.174;2023-05-10T09:59:03;1.17;;;1.08;;
19883;SDS011;10104;50.732;10.174;2023-05-10T10:01:27;1.27;;;1.17;;
19883;SDS011;10104;50.732;10.174;2023-05-10T10:03:49;4.03;;;1.58;;
19883;SDS011;10104;50.732;10.174;2023-05-10T10:06:11;1.80;;;1.65;;
19883;SDS011;10104;50.732;10.174;2023-05-10T10:08:50;2.13;;;1.92;;
19883;SDS011;10104;50.732;10.174;2023-05-10T10:11:14;1.75;;;1.65;;
19883;SDS011;10104;50.732;10.174;2023-05-10T10:13:35;3.38;;;1.95;;
19883;SDS011;10104;50.732;10.174;2023-05-10T10:15:58;1.65;;;1.55;;
19883;SDS011;10104;50.732;10.174;2023-05-10T10:18:19;2.38;;;1.58;;
19883;SDS011;10104;50.732;10.174;2023-05-10T10:20:45;1.73;;;1.40;;
19883;SDS011;10104;50.732;10.174;2023-05-10T10:23:07;3.28;;;1.88;;
19883;SDS011;10104;50.732;10.174;2023-05-10T10:25:29;2.85;;;2.08;;
19883;SDS011;10104;50.732;10.174;2023-05-10T10:30:24;2.20;;;2.00;;
19883;SDS011;10104;50.732;10.174;2023-05-10T10:35:15;3.45;;;2.75;;
19883;SDS011;10104;50.732;10.174;2023-05-10T10:37:42;1.60;;;1.50;;
19883;SDS011;10104;50.732;10.174;2023-05-10T10:40:22;2.80;;;1.90;;
19883;SDS011;10104;50.732;10.174;2023-05-10T10:42:51;2.15;;;1.70;;
19883;SDS011;10104;50.732;10.174;2023-05-10T10:45:14;2.45;;;1.85;;
19883;SDS011;10104;50.732;10.174;2023-05-10T10:47:36;1.63;;;1.50;;
19883;SDS011;10104;50.732;10.174;2023-05-10T10:52:37;2.33;;;1.70;;
19883;SDS011;10104;50.732;10.174;2023-05-10T10:55:09;2.65;;;1.60;;
19883;SDS011;10104;50.732;10.174;2023-05-10T10:57:32;1.88;;;1.40;;
19883;SDS011;10104;50.732;10.174;2023-05-10T11:03:05;1.95;;;1.50;;
19883;SDS011;10104;50.732;10.174;2023-05-10T11:05:38;1.80;;;1.45;;
19883;SDS011;10104;50.732;10.174;2023-05-10T11:08:17;1.92;;;1.30;;
19883;SDS011;10104;50.732;10.174;2023-05-10T11:10:48;2.75;;;1.55;;
19883;SDS011;10104;50.732;10.174;2023-05-10T11:13:13;1.27;;;1.17;;
19883;SDS011;10104;50.732;10.174;2023-05-10T11:15:35;2.67;;;1.40;;
19883;SDS011;10104;50.732;10.174;2023-05-10T11:17:58;3.45;;;1.77;;
19883;SDS011;10104;50.732;10.174;2023-05-10T11:20:20;1.73;;;1.40;;
19883;SDS011;10104;50.732;10.174;2023-05-10T11:22:51;1.88;;;1.50;;
19883;SDS011;10104;50.732;10.174;2023-05-10T11:25:13;1.70;;;1.60;;
19883;SDS011;10104;50.732;10.174;2023-05-10T11:27:36;2.47;;;1.40;;
19883;SDS011;10104;50.732;10.174;2023-05-10T11:29:58;4.18;;;1.60;;
19883;SDS011;10104;50.732;10.174;2023-05-10T11:32:20;2.17;;;1.50;;
19883;SDS011;10104;50.732;10.174;2023-05-10T11:34:42;1.50;;;1.33;;
19883;SDS011;10104;50.732;10.174;2023-05-10T11:37:09;1.92;;;1.52;;
19883;SDS011;10104;50.732;10.174;2023-05-10T11:39:31;1.60;;;1.50;;
19883;SDS011;10104;50.732;10.174;2023-05-10T11:41:53;2.20;;;1.40;;
19883;SDS011;10104;50.732;10.174;2023-05-10T11:44:14;4.32;;;1.73;;
19883;SDS011;10104;50.732;10.174;2023-05-10T11:46:36;2.17;;;1.30;;
19883;SDS011;10104;50.732;10.174;2023-05-10T11:48:59;1.60;;;1.40;;
19883;SDS011;10104;50.732;10.174;2023-05-10T11:51:23;2.60;;;1.60;;
19883;SDS011;10104;50.732;10.174;2023-05-10T11:53:46;2.05;;;1.60;;
19883;SDS011;10104;50.732;10.174;2023-05-10T11:56:08;2.00;;;1.60;;
19883;SDS011;10104;50.732;10.174;2023-05-10T11:58:31;1.50;;;1.40;;
19883;SDS011;10104;50.732;10.174;2023-05-10T12:00:53;1.75;;;1.50;;
19883;SDS011;10104;50.732;10.174;2023-05-10T12:03:15;2.15;;;1.50;;
19883;SDS011;10104;50.732;10.174;2023-05-10T12:05:36;1.55;;;1.25;;
19883;SDS011;10104;50.732;10.174;2023-05-10T12:08:13;1.80;;;1.45;;
19883;SDS011;10104;50.732;10.174;2023-05-10T12:10:35;1.75;;;1.50;;
19883;SDS011;10104;50.732;10.174;2023-05-10T12:12:57;1.45;;;1.35;;
19883;SDS011;10104;50.732;10.174;2023-05-10T12:15:20;1.88;;;1.33;;
19883;SDS011;10104;50.732;10.174;2023-05-10T12:17:43;1.70;;;1.60;;
19883;SDS011;10104;50.732;10.174;2023-05-10T12:20:15;3.67;;;1.60;;
19883;SDS011;10104;50.732;10.174;2023-05-10T12:22:45;1.40;;;1.30;;
19883;SDS011;10104;50.732;10.174;2023-05-10T12:25:08;1.50;;;1.40;;
19883;SDS011;10104;50.732;10.174;2023-05-10T12:27:33;1.50;;;1.40;;
19883;SDS011;10104;50.732;10.174;2023-05-10T12:29:54;1.40;;;1.17;;
19883;SDS011;10104;50.732;10.174;2023-05-10T12:32:16;1.27;;;1.10;;
19883;SDS011;10104;50.732;10.174;2023-05-10T12:34:37;1.60;;;1.50;;
19883;SDS011;10104;50.732;10.174;2023-05-10T12:36:59;1.50;;;1.40;;
19883;SDS011;10104;50.732;10.174;2023-05-10T12:39:21;1.20;;;1.10;;
19883;SDS011;10104;50.732;10.174;2023-05-10T12:41:43;1.38;;;1.15;;
19883;SDS011;10104;50.732;10.174;2023-05-10T12:44:04;1.42;;;1.30;;
19883;SDS011;10104;50.732;10.174;2023-05-10T12:46:26;1.60;;;1.30;;
19883;SDS011;10104;50.732;10.174;2023-05-10T12:48:48;1.40;;;1.00;;
19883;SDS011;10104;50.732;10.174;2023-05-10T12:51:29;1.95;;;1.20;;
19883;SDS011;10104;50.732;10.174;2023-05-10T12:53:51;1.13;;;0.80;;
19883;SDS011;10104;50.732;10.174;2023-05-10T12:56:13;1.10;;;0.90;;
19883;SDS011;10104;50.732;10.174;2023-05-10T12:58:34;1.17;;;0.80;;
19883;SDS011;10104;50.732;10.174;2023-05-10T13:00:57;1.85;;;0.93;;
19883;SDS011;10104;50.732;10.174;2023-05-10T13:03:19;0.88;;;0.88;;
19883;SDS011;10104;50.732;10.174;2023-05-10T13:05:41;1.20;;;1.00;;
19883;SDS011;10104;50.732;10.174;2023-05-10T13:08:02;1.85;;;1.00;;
19883;SDS011;10104;50.732;10.174;2023-05-10T13:10:24;1.35;;;1.00;;
19883;SDS011;10104;50.732;10.174;2023-05-10T13:12:46;2.25;;;0.90;;
19883;SDS011;10104;50.732;10.174;2023-05-10T13:15:07;1.25;;;0.90;;
19883;SDS011;10104;50.732;10.174;2023-05-10T13:17:29;1.20;;;1.10;;
19883;SDS011;10104;50.732;10.174;2023-05-10T13:19:54;1.92;;;1.10;;
19883;SDS011;10104;50.732;10.174;2023-05-10T13:22:15;1.02;;;1.00;;
19883;SDS011;10104;50.732;10.174;2023-05-10T13:24:49;1.33;;;1.23;;
19883;SDS011;10104;50.732;10.174;2023-05-10T13:27:10;2.22;;;1.30;;
19883;SDS011;10104;50.732;10.174;2023-05-10T13:29:32;5.97;;;1.52;;
19883;SDS011;10104;50.732;10.174;2023-05-10T13:31:53;2.70;;;1.15;;
19883;SDS011;10104;50.732;10.174;2023-05-10T13:34:15;1.10;;;0.95;;
19883;SDS011;10104;50.732;10.174;2023-05-10T13:36:36;1.20;;;1.00;;
19883;SDS011;10104;50.732;10.174;2023-05-10T13:38:58;1.98;;;1.17;;
19883;SDS011;10104;50.732;10.174;2023-05-10T13:41:19;2.47;;;1.10;;
19883;SDS011;10104;50.732;10.174;2023-05-10T13:43:41;1.77;;;1.15;;
19883;SDS011;10104;50.732;10.174;2023-05-10T13:46:02;1.42;;;1.33;;
19883;SDS011;10104;50.732;10.174;2023-05-10T13:48:24;1.20;;;1.10;;
19883;SDS011;10104;50.732;10.174;2023-05-10T13:50:45;1.52;;;1.20;;
19883;SDS011;10104;50.732;10.174;2023-05-10T13:53:07;2.28;;;1.17;;
19883;SDS011;10104;50.732;10.174;2023-05-10T13:55:28;1.13;;;1.02;;
19883;SDS011;10104;50.732;10.174;2023-05-10T13:57:50;1.05;;;0.95;;
19883;SDS011;10104;50.732;10.174;2023-05-10T14:00:11;1.05;;;0.93;;
19883;SDS011;10104;50.732;10.174;2023-05-10T14:02:33;1.00;;;0.90;;
19883;SDS011;10104;50.732;10.174;2023-05-10T14:04:55;1.30;;;0.95;;
19883;SDS011;10104;50.732;10.174;2023-05-10T14:07:17;1.25;;;1.02;;
19883;SDS011;10104;50.732;10.174;2023-05-10T14:09:39;2.28;;;1.13;;
19883;SDS011;10104;50.732;10.174;2023-05-10T14:12:00;2.40;;;1.30;;
19883;SDS011;10104;50.732;10.174;2023-05-10T14:14:23;1.30;;;1.20;;
19883;SDS011;10104;50.732;10.174;2023-05-10T14:16:44;2.28;;;1.45;;
19883;SDS011;10104;50.732;10.174;2023-05-10T14:19:06;1.67;;;1.58;;
19883;SDS011;10104;50.732;10.174;2023-05-10T14:21:27;1.80;;;1.42;;
19883;SDS011;10104;50.732;10.174;2023-05-10T14:23:52;1.30;;;1.20;;
19883;SDS011;10104;50.732;10.174;2023-05-10T14:26:13;1.70;;;1.55;;
19883;SDS011;10104;50.732;10.174;2023-05-10T14:28:35;1.50;;;1.40;;
19883;SDS011;10104;50.732;10.174;2023-05-10T14:30:56;1.55;;;1.30;;
19883;SDS011;10104;50.732;10.174;2023-05-10T14:33:18;2.45;;;1.35;;
19883;SDS011;10104;50.732;10.174;2023-05-10T14:35:39;1.40;;;1.30;;
19883;SDS011;10104;50.732;10.174;2023-05-10T14:38:01;1.30;;;1.02;;